<?xml version="1.0" encoding="UTF-8" standalone="no" ?>
<gpx xmlns="http://www.topografix.com/GPX/1/1" xmlns:xsi="http://www.w3.org/2001/XMLSchema-instance" xsi:schemaLocation="http://www.topografix.com/GPX/1/1 http://www.topografix.com/GPX/1/1/gpx.xsd" version="1.1" creator="VisuGPX - https://www.visugpx.com">
  <metadata>
    <name>Sortie VTT Chartreuse</name>
    <desc><![CDATA[Essai]]></desc>
  </metadata>
  <trk>
    <name><![CDATA[Sortie VTT Chartreuse_6]]></name>
    <trkseg>
      <trkpt lat="45.37841" lon="5.77812">
        <ele>1441</ele>
        <time>2008-10-25T12:13:49Z</time>
      </trkpt>
      <trkpt lat="45.37839" lon="5.77819">
        <ele>1442</ele>
        <time>2008-10-25T12:14:13Z</time>
      </trkpt>
      <trkpt lat="45.37826" lon="5.77829">
        <ele>1444</ele>
        <time>2008-10-25T12:14:31Z</time>
      </trkpt>
      <trkpt lat="45.37823" lon="5.77829">
        <ele>1444</ele>
        <time>2008-10-25T12:14:32Z</time>
      </trkpt>
      <trkpt lat="45.37817" lon="5.7784">
        <ele>1445</ele>
        <time>2008-10-25T12:14:48Z</time>
      </trkpt>
      <trkpt lat="45.37806" lon="5.77855">
        <ele>1447</ele>
        <time>2008-10-25T12:15:08Z</time>
      </trkpt>
      <trkpt lat="45.37802" lon="5.77866">
        <ele>1449</ele>
        <time>2008-10-25T12:15:23Z</time>
      </trkpt>
      <trkpt lat="45.37796" lon="5.77872">
        <ele>1452</ele>
        <time>2008-10-25T12:15:38Z</time>
      </trkpt>
      <trkpt lat="45.37783" lon="5.77881">
        <ele>1454</ele>
        <time>2008-10-25T12:15:57Z</time>
      </trkpt>
      <trkpt lat="45.37768" lon="5.77887">
        <ele>1457</ele>
        <time>2008-10-25T12:16:17Z</time>
      </trkpt>
      <trkpt lat="45.37763" lon="5.77887">
        <ele>1457</ele>
        <time>2008-10-25T12:16:23Z</time>
      </trkpt>
      <trkpt lat="45.37746" lon="5.77898">
        <ele>1461</ele>
        <time>2008-10-25T12:16:45Z</time>
      </trkpt>
      <trkpt lat="45.37727" lon="5.77905">
        <ele>1463</ele>
        <time>2008-10-25T12:17:10Z</time>
      </trkpt>
      <trkpt lat="45.3771" lon="5.77915">
        <ele>1468</ele>
        <time>2008-10-25T12:17:31Z</time>
      </trkpt>
      <trkpt lat="45.37693" lon="5.7792">
        <ele>1469</ele>
        <time>2008-10-25T12:17:54Z</time>
      </trkpt>
      <trkpt lat="45.37682" lon="5.7793">
        <ele>1473</ele>
        <time>2008-10-25T12:18:15Z</time>
      </trkpt>
      <trkpt lat="45.37675" lon="5.77928">
        <ele>1474</ele>
        <time>2008-10-25T12:19:19Z</time>
      </trkpt>
      <trkpt lat="45.37648" lon="5.77926">
        <ele>1490</ele>
        <time>2008-10-25T12:20:51Z</time>
      </trkpt>
      <trkpt lat="45.3763" lon="5.77928">
        <ele>1487</ele>
        <time>2008-10-25T12:21:08Z</time>
      </trkpt>
      <trkpt lat="45.37615" lon="5.7793">
        <ele>1487</ele>
        <time>2008-10-25T12:21:29Z</time>
      </trkpt>
      <trkpt lat="45.3759" lon="5.77924">
        <ele>1486</ele>
        <time>2008-10-25T12:21:58Z</time>
      </trkpt>
      <trkpt lat="45.37575" lon="5.77922">
        <ele>1490</ele>
        <time>2008-10-25T12:22:17Z</time>
      </trkpt>
      <trkpt lat="45.37553" lon="5.77928">
        <ele>1494</ele>
        <time>2008-10-25T12:22:41Z</time>
      </trkpt>
      <trkpt lat="45.37549" lon="5.77926">
        <ele>1495</ele>
        <time>2008-10-25T12:23:00Z</time>
      </trkpt>
      <trkpt lat="45.37555" lon="5.77922">
        <ele>1503</ele>
        <time>2008-10-25T12:23:20Z</time>
      </trkpt>
      <trkpt lat="45.37553" lon="5.77928">
        <ele>1505</ele>
        <time>2008-10-25T12:23:47Z</time>
      </trkpt>
      <trkpt lat="45.37545" lon="5.77935">
        <ele>1515</ele>
        <time>2008-10-25T12:24:49Z</time>
      </trkpt>
      <trkpt lat="45.37532" lon="5.77937">
        <ele>1509</ele>
        <time>2008-10-25T12:25:07Z</time>
      </trkpt>
      <trkpt lat="45.37521" lon="5.7795">
        <ele>1505</ele>
        <time>2008-10-25T12:25:19Z</time>
      </trkpt>
      <trkpt lat="45.37525" lon="5.77954">
        <ele>1503</ele>
        <time>2008-10-25T12:25:23Z</time>
      </trkpt>
      <trkpt lat="45.37538" lon="5.78003">
        <ele>1500</ele>
        <time>2008-10-25T12:25:44Z</time>
      </trkpt>
      <trkpt lat="45.3754" lon="5.78005">
        <ele>1495</ele>
        <time>2008-10-25T12:25:57Z</time>
      </trkpt>
      <trkpt lat="45.3754" lon="5.78029">
        <ele>1492</ele>
        <time>2008-10-25T12:26:08Z</time>
      </trkpt>
      <trkpt lat="45.37538" lon="5.78035">
        <ele>1488</ele>
        <time>2008-10-25T12:26:13Z</time>
      </trkpt>
      <trkpt lat="45.37538" lon="5.78087">
        <ele>1487</ele>
        <time>2008-10-25T12:26:35Z</time>
      </trkpt>
      <trkpt lat="45.37525" lon="5.78166">
        <ele>1483</ele>
        <time>2008-10-25T12:27:02Z</time>
      </trkpt>
      <trkpt lat="45.3751" lon="5.78198">
        <ele>1479</ele>
        <time>2008-10-25T12:27:14Z</time>
      </trkpt>
      <trkpt lat="45.37489" lon="5.78194">
        <ele>1472</ele>
        <time>2008-10-25T12:27:27Z</time>
      </trkpt>
      <trkpt lat="45.37487" lon="5.7819">
        <ele>1463</ele>
        <time>2008-10-25T12:28:08Z</time>
      </trkpt>
      <trkpt lat="45.37489" lon="5.7819">
        <ele>1462</ele>
        <time>2008-10-25T12:28:27Z</time>
      </trkpt>
      <trkpt lat="45.37491" lon="5.78192">
        <ele>1450</ele>
        <time>2008-10-25T12:29:06Z</time>
      </trkpt>
      <trkpt lat="45.37491" lon="5.78194">
        <ele>1450</ele>
        <time>2008-10-25T12:29:10Z</time>
      </trkpt>
      <trkpt lat="45.37491" lon="5.78203">
        <ele>1450</ele>
        <time>2008-10-25T12:29:17Z</time>
      </trkpt>
      <trkpt lat="45.37444" lon="5.78201">
        <ele>1446</ele>
        <time>2008-10-25T12:29:33Z</time>
      </trkpt>
      <trkpt lat="45.37437" lon="5.78196">
        <ele>1444</ele>
        <time>2008-10-25T12:29:48Z</time>
      </trkpt>
      <trkpt lat="45.37437" lon="5.78198">
        <ele>1435</ele>
        <time>2008-10-25T12:30:29Z</time>
      </trkpt>
      <trkpt lat="45.37442" lon="5.7819">
        <ele>1433</ele>
        <time>2008-10-25T12:32:27Z</time>
      </trkpt>
      <trkpt lat="45.37442" lon="5.78188">
        <ele>1432</ele>
        <time>2008-10-25T12:32:35Z</time>
      </trkpt>
      <trkpt lat="45.37442" lon="5.78179">
        <ele>1433</ele>
        <time>2008-10-25T12:32:38Z</time>
      </trkpt>
      <trkpt lat="45.37446" lon="5.78168">
        <ele>1432</ele>
        <time>2008-10-25T12:32:41Z</time>
      </trkpt>
      <trkpt lat="45.37465" lon="5.7813">
        <ele>1433</ele>
        <time>2008-10-25T12:32:54Z</time>
      </trkpt>
      <trkpt lat="45.37459" lon="5.78102">
        <ele>1433</ele>
        <time>2008-10-25T12:33:02Z</time>
      </trkpt>
      <trkpt lat="45.37431" lon="5.781">
        <ele>1420</ele>
        <time>2008-10-25T12:33:15Z</time>
      </trkpt>
      <trkpt lat="45.37373" lon="5.78078">
        <ele>1416</ele>
        <time>2008-10-25T12:33:33Z</time>
      </trkpt>
      <trkpt lat="45.37358" lon="5.78072">
        <ele>1416</ele>
        <time>2008-10-25T12:33:37Z</time>
      </trkpt>
      <trkpt lat="45.37319" lon="5.78055">
        <ele>1415</ele>
        <time>2008-10-25T12:33:54Z</time>
      </trkpt>
      <trkpt lat="45.37319" lon="5.7805">
        <ele>1414</ele>
        <time>2008-10-25T12:34:17Z</time>
      </trkpt>
      <trkpt lat="45.37319" lon="5.7805">
        <ele>1414</ele>
        <time>2008-10-25T12:34:18Z</time>
      </trkpt>
      <trkpt lat="45.37315" lon="5.78048">
        <ele>1414</ele>
        <time>2008-10-25T12:34:21Z</time>
      </trkpt>
      <trkpt lat="45.37283" lon="5.78059">
        <ele>1414</ele>
        <time>2008-10-25T12:34:37Z</time>
      </trkpt>
      <trkpt lat="45.37244" lon="5.7807">
        <ele>1413</ele>
        <time>2008-10-25T12:34:56Z</time>
      </trkpt>
      <trkpt lat="45.37186" lon="5.78074">
        <ele>1412</ele>
        <time>2008-10-25T12:35:15Z</time>
      </trkpt>
      <trkpt lat="45.37169" lon="5.78095">
        <ele>1412</ele>
        <time>2008-10-25T12:35:18Z</time>
      </trkpt>
      <trkpt lat="45.37158" lon="5.78106">
        <ele>1411</ele>
        <time>2008-10-25T12:35:21Z</time>
      </trkpt>
      <trkpt lat="45.37152" lon="5.78123">
        <ele>1411</ele>
        <time>2008-10-25T12:35:25Z</time>
      </trkpt>
      <trkpt lat="45.37158" lon="5.78181">
        <ele>1410</ele>
        <time>2008-10-25T12:35:35Z</time>
      </trkpt>
      <trkpt lat="45.37208" lon="5.78265">
        <ele>1409</ele>
        <time>2008-10-25T12:35:52Z</time>
      </trkpt>
      <trkpt lat="45.37285" lon="5.78357">
        <ele>1407</ele>
        <time>2008-10-25T12:36:16Z</time>
      </trkpt>
      <trkpt lat="45.37334" lon="5.78368">
        <ele>1241</ele>
        <time>2008-10-25T12:37:34Z</time>
      </trkpt>
      <trkpt lat="45.37343" lon="5.78383">
        <ele>1243</ele>
        <time>2008-10-25T12:37:39Z</time>
      </trkpt>
      <trkpt lat="45.37377" lon="5.78456">
        <ele>1247</ele>
        <time>2008-10-25T12:37:56Z</time>
      </trkpt>
      <trkpt lat="45.37381" lon="5.78469">
        <ele>1247</ele>
        <time>2008-10-25T12:38:00Z</time>
      </trkpt>
      <trkpt lat="45.37366" lon="5.78514">
        <ele>1245</ele>
        <time>2008-10-25T12:38:11Z</time>
      </trkpt>
    </trkseg>
  </trk>
</gpx>